ポートオブスペイン の空港の天気 - METARとTAF

ピアルコ国際空港(ポートオブスペイン) ( TTPP / POS ) - トリニダード・トバゴ ポートオブスペイン (トリニダード島)
飛行場実況気象(Metar)
観測時間05/25 04:00 AST (05/25 08:00 UTC)
風向・風速東南東 3m/s
視程10km以上
天気現象
少しの雲 雲底高度 490m
気温25℃
湿度83%
気圧1013hPa
METARTTPP 250800Z 11006KT 9999 FEW016 25/22 Q1013 NOSIG
過去の天気等 Google飛行場航空写真 Wunderground天気予報

過去48時間のMETAR

飛行場予報(TAF)
発表時間: 5/25 00:00 AST (5/25 04:00 UTC)
予報対象時間: 25日2時 AST ~ 26日2時 AST
風向・風速静穏
視程10km以上
少しの雲 雲底高度 550m
25日8時 AST ~ 25日10時 AST に徐々に
風向・風速東南東 8m/s
全天の4割程度の雲 雲底高度 760m
25日19時 AST ~ 25日21時 AST に徐々に
風向・風速東 3m/s
少しの雲 雲底高度 610m
TAF TTPP 250400Z 2506/2606 00000KT 9999 FEW018
BECMG 2512/2514 12015KT SCT025
BECMG 2523/2601 09005KT FEW020